createdAt,value
2022-11-05T00:00:34.196Z,16.80
2022-11-05T00:03:19.395Z,15.23
2022-11-05T00:06:07.723Z,16.02
2022-11-05T00:08:53.352Z,16.67
2022-11-05T00:11:41.639Z,15.23
2022-11-05T00:14:27.113Z,17.05
2022-11-05T00:16:56.423Z,16.38
2022-11-05T00:19:24.757Z,16.45
2022-11-05T00:22:09.982Z,21.50
2022-11-05T00:24:55.267Z,17.83
2022-11-05T00:27:23.193Z,18.65
2022-11-05T00:29:51.039Z,20.40
2022-11-05T00:32:20.650Z,17.13
2022-11-05T00:34:48.606Z,18.38
2022-11-05T00:37:16.481Z,22.95
2022-11-05T00:39:44.410Z,25.08
2022-11-05T00:42:29.578Z,23.40
2022-11-05T00:45:11.490Z,20.27
2022-11-05T00:47:58.380Z,18.15
2022-11-05T00:50:26.295Z,16.60
2022-11-05T00:52:59.523Z,17.83
2022-11-05T00:55:33.268Z,17.38
2022-11-05T00:58:02.912Z,17.60
2022-11-05T01:00:33.110Z,19.65
2022-11-05T01:08:01.864Z,16.58
2022-11-05T01:10:30.435Z,17.20
2022-11-05T01:12:59.032Z,17.67
2022-11-05T01:15:26.944Z,17.73
2022-11-05T01:17:54.860Z,17.60
2022-11-05T01:20:24.399Z,17.23
2022-11-05T01:22:52.318Z,18.35
2022-11-05T01:25:20.369Z,20.23
2022-11-05T01:27:48.333Z,18.25
2022-11-05T01:30:16.516Z,19.55
2022-11-05T01:32:45.103Z,20.48
2022-11-05T01:35:15.878Z,18.50
2022-11-05T01:37:45.940Z,17.70
2022-11-05T01:40:15.767Z,19.65
2022-11-05T01:42:44.039Z,17.70
2022-11-05T01:45:16.350Z,19.70
2022-11-05T01:47:51.274Z,18.25
2022-11-05T01:50:27.812Z,19.00
2022-11-05T01:53:03.788Z,17.90
2022-11-05T01:55:37.884Z,17.27
2022-11-05T01:58:09.155Z,14.98
2022-11-05T02:00:37.720Z,16.55
2022-11-05T02:03:06.077Z,15.80
2022-11-05T02:05:35.667Z,16.25
2022-11-05T02:08:05.371Z,16.65
2022-11-05T02:10:34.123Z,16.70
2022-11-05T02:13:03.686Z,16.15
2022-11-05T02:15:41.012Z,17.42
2022-11-05T02:18:17.948Z,18.00
2022-11-05T02:20:54.860Z,16.95
2022-11-05T02:24:03.833Z,15.52
2022-11-05T02:27:02.473Z,16.92
2022-11-05T02:30:05.768Z,14.98
2022-11-05T02:32:42.991Z,16.30
2022-11-05T02:35:23.753Z,16.17
2022-11-05T02:37:55.210Z,16.02
2022-11-05T02:40:28.664Z,21.80
2022-11-05T02:43:02.460Z,18.88
2022-11-05T02:45:41.741Z,18.50
2022-11-05T02:48:21.180Z,19.90
2022-11-05T02:50:55.734Z,18.60
2022-11-05T02:53:30.090Z,18.42
2022-11-05T02:56:03.017Z,20.10
2022-11-05T02:58:31.594Z,19.77
2022-11-05T03:01:00.530Z,17.67
2022-11-05T03:03:35.421Z,19.00
2022-11-05T03:06:24.050Z,18.98
2022-11-05T03:09:05.651Z,16.88
2022-11-05T03:11:40.978Z,17.63
2022-11-05T03:14:20.729Z,18.20
2022-11-05T03:16:56.747Z,18.02
2022-11-05T03:19:36.079Z,17.35
2022-11-05T03:22:09.420Z,16.85
2022-11-05T03:24:40.260Z,17.98
2022-11-05T03:27:12.175Z,18.15
2022-11-05T03:29:46.759Z,17.35
2022-11-05T03:32:17.113Z,17.25
2022-11-05T03:34:49.574Z,17.55
2022-11-05T03:37:20.686Z,18.33
2022-11-05T03:39:51.832Z,18.10
2022-11-05T03:42:22.618Z,19.60
2022-11-05T03:44:54.613Z,20.15
2022-11-05T03:47:26.632Z,26.25
2022-11-05T03:50:03.747Z,30.17
2022-11-05T03:52:39.647Z,36.38
2022-11-05T03:55:07.941Z,35.67
2022-11-05T03:57:40.503Z,30.05
2022-11-05T04:00:10.662Z,37.35
2022-11-05T04:02:41.481Z,36.78
2022-11-05T04:05:11.123Z,33.72
2022-11-05T04:07:56.654Z,38.25
2022-11-05T04:10:42.142Z,35.92
2022-11-05T04:13:27.788Z,55.45
2022-11-05T04:16:15.071Z,58.65
2022-11-05T04:18:43.837Z,44.40
2022-11-05T04:21:30.725Z,53.75
2022-11-05T04:24:12.805Z,63.05
2022-11-05T04:26:42.032Z,65.05
2022-11-05T04:29:27.870Z,51.78
2022-11-05T04:31:56.427Z,51.65
2022-11-05T04:34:24.824Z,49.92
2022-11-05T04:36:54.287Z,57.00
2022-11-05T04:39:22.669Z,52.00
2022-11-05T04:41:50.566Z,65.05
2022-11-05T04:44:18.522Z,49.47
2022-11-05T04:46:46.499Z,41.40
2022-11-05T04:49:14.464Z,49.78
2022-11-05T04:51:42.319Z,56.92
2022-11-05T04:54:11.774Z,47.83
2022-11-05T04:56:39.692Z,49.80
2022-11-05T04:59:07.604Z,37.70
2022-11-05T05:01:35.767Z,34.28
2022-11-05T05:04:03.797Z,52.85
2022-11-05T05:06:31.775Z,50.92
2022-11-05T05:08:59.667Z,40.30
2022-11-05T05:11:29.034Z,35.50
2022-11-05T05:13:56.934Z,32.60
2022-11-05T05:16:26.932Z,58.55
2022-11-05T05:18:55.648Z,31.65
2022-11-05T05:21:38.968Z,39.85
2022-11-05T05:24:09.468Z,54.70
2022-11-05T05:26:40.032Z,37.15
2022-11-05T05:29:08.805Z,35.35
2022-11-05T05:31:37.271Z,26.75
2022-11-05T05:34:05.629Z,26.83
2022-11-05T05:36:34.075Z,23.63
2022-11-05T05:39:02.175Z,39.22
2022-11-05T05:41:30.042Z,20.65
2022-11-05T05:43:59.494Z,33.35
2022-11-05T05:46:27.416Z,33.78
2022-11-05T05:48:55.491Z,24.63
2022-11-05T05:51:23.468Z,25.20
2022-11-05T05:53:53.659Z,34.55
2022-11-05T05:56:21.779Z,28.45
2022-11-05T05:58:50.058Z,28.15
2022-11-05T06:01:20.317Z,37.13
2022-11-05T06:03:48.743Z,30.85
2022-11-05T06:06:20.920Z,27.38
2022-11-05T06:08:49.515Z,29.85
2022-11-05T06:11:17.428Z,38.15
2022-11-05T06:13:45.323Z,29.08
2022-11-05T06:16:13.312Z,26.17
2022-11-05T06:18:42.815Z,31.13
2022-11-05T06:21:12.765Z,26.10
2022-11-05T06:23:43.242Z,31.90
2022-11-05T06:26:14.141Z,40.63
2022-11-05T06:28:42.623Z,30.48
2022-11-05T06:31:11.339Z,27.00
2022-11-05T06:33:40.153Z,27.08
2022-11-05T06:36:15.619Z,24.73
2022-11-05T06:38:43.775Z,23.13
2022-11-05T06:41:11.718Z,22.35
2022-11-05T06:43:40.077Z,21.98
2022-11-05T06:46:08.789Z,22.50
2022-11-05T06:48:36.678Z,20.98
2022-11-05T06:51:05.007Z,19.83
2022-11-05T06:53:34.739Z,19.33
2022-11-05T06:56:06.652Z,20.35
2022-11-05T06:58:34.982Z,20.17
2022-11-05T07:01:03.573Z,19.90
2022-11-05T07:03:31.961Z,20.83
2022-11-05T07:06:01.321Z,20.95
2022-11-05T07:08:32.337Z,21.03
2022-11-05T07:11:01.755Z,20.80
2022-11-05T07:13:29.738Z,20.33
2022-11-05T07:15:57.717Z,21.15
2022-11-05T07:18:26.024Z,20.20
2022-11-05T07:20:53.930Z,21.25
2022-11-05T07:23:21.828Z,19.80
2022-11-05T07:25:49.870Z,20.17
2022-11-05T07:28:19.660Z,23.55
2022-11-05T07:30:48.420Z,20.17
2022-11-05T07:33:16.240Z,20.77
2022-11-05T07:35:44.127Z,20.67
2022-11-05T07:38:12.471Z,20.88
2022-11-05T07:40:40.455Z,21.20
2022-11-05T07:43:08.855Z,22.60
2022-11-05T07:45:38.250Z,26.38
2022-11-05T07:48:06.871Z,31.25
2022-11-05T07:50:36.557Z,34.85
2022-11-05T07:53:06.266Z,32.92
2022-11-05T07:55:34.544Z,29.63
2022-11-05T07:58:02.719Z,24.92
2022-11-05T08:00:31.537Z,24.65
2022-11-05T08:03:07.762Z,26.10
2022-11-05T08:05:38.719Z,27.83
2022-11-05T08:08:07.783Z,27.13
2022-11-05T08:10:36.368Z,27.33
2022-11-05T08:13:04.374Z,27.27
2022-11-05T08:15:32.829Z,26.23
2022-11-05T08:18:03.766Z,28.50
2022-11-05T08:20:32.226Z,27.60
2022-11-05T08:23:00.254Z,32.78
2022-11-05T08:25:28.794Z,29.65
2022-11-05T08:27:57.325Z,25.60
2022-11-05T08:30:25.711Z,25.85
2022-11-05T08:32:57.759Z,24.58
2022-11-05T08:35:28.355Z,26.40
2022-11-05T08:38:00.566Z,29.15
2022-11-05T08:40:28.623Z,28.60
2022-11-05T08:42:58.538Z,30.00
2022-11-05T08:45:27.220Z,26.35
2022-11-05T08:48:00.217Z,28.77
2022-11-05T08:50:30.579Z,30.48
2022-11-05T08:55:27.104Z,30.17
2022-11-05T08:57:59.460Z,32.05
2022-11-05T09:00:28.905Z,32.83
2022-11-05T09:02:59.687Z,33.40
2022-11-05T09:05:29.554Z,36.38
2022-11-05T09:08:01.008Z,30.02
2022-11-05T09:10:29.869Z,35.35
2022-11-05T09:12:57.838Z,34.17
2022-11-05T09:15:25.782Z,35.15
2022-11-05T09:17:53.878Z,36.97
2022-11-05T09:20:22.119Z,36.45
2022-11-05T09:22:51.380Z,40.10
2022-11-05T09:25:19.374Z,36.88
2022-11-05T09:27:47.421Z,37.72
2022-11-05T09:30:15.695Z,34.30
2022-11-05T09:32:43.710Z,35.95
2022-11-05T09:35:11.698Z,34.20
2022-11-05T09:37:40.115Z,32.78
2022-11-05T09:40:16.829Z,31.10
2022-11-05T09:42:47.301Z,32.67
2022-11-05T09:45:19.987Z,34.35
2022-11-05T09:47:51.268Z,31.83
2022-11-05T09:50:23.587Z,31.05
2022-11-05T09:52:51.757Z,29.13
2022-11-05T09:55:29.935Z,30.45
2022-11-05T09:58:00.583Z,31.23
2022-11-05T10:00:29.829Z,29.23
2022-11-05T10:03:01.021Z,30.42
2022-11-05T10:05:29.946Z,29.88
2022-11-05T10:08:00.981Z,31.48
2022-11-05T10:10:41.097Z,31.60
2022-11-05T10:13:20.724Z,31.58
2022-11-05T10:15:56.683Z,30.98
2022-11-05T10:18:29.319Z,31.90
2022-11-05T10:20:57.838Z,32.75
2022-11-05T10:23:27.885Z,32.70
2022-11-05T10:26:01.135Z,32.20
2022-11-05T10:28:31.166Z,30.55
2022-11-05T10:31:01.289Z,32.15
2022-11-05T10:33:33.752Z,31.13
2022-11-05T10:36:06.256Z,29.42
2022-11-05T10:38:34.366Z,29.45
2022-11-05T10:41:23.431Z,28.98
2022-11-05T10:43:53.395Z,27.58
2022-11-05T10:46:29.848Z,28.27
2022-11-05T10:49:12.414Z,27.38
2022-11-05T10:51:40.554Z,27.13
2022-11-05T10:54:17.205Z,27.48
2022-11-05T10:56:46.643Z,22.05
2022-11-05T10:59:25.826Z,18.47
2022-11-05T11:01:58.864Z,18.45
2022-11-05T11:04:32.291Z,17.63
2022-11-05T11:07:03.521Z,16.42
2022-11-05T11:09:34.215Z,18.08
2022-11-05T11:12:07.210Z,15.00
2022-11-05T11:14:35.463Z,14.60
2022-11-05T11:17:29.358Z,15.00
2022-11-05T11:20:29.465Z,15.38
2022-11-05T11:23:12.860Z,14.73
2022-11-05T11:25:47.393Z,15.02
2022-11-05T11:28:22.484Z,14.52
2022-11-05T11:30:52.854Z,14.07
2022-11-05T11:33:24.596Z,13.70
2022-11-05T11:35:52.619Z,13.93
2022-11-05T11:38:24.236Z,14.65
2022-11-05T11:41:00.555Z,11.30
2022-11-05T11:43:34.821Z,13.93
2022-11-05T11:46:07.720Z,12.27
2022-11-05T11:48:41.183Z,13.30
2022-11-05T11:51:32.131Z,12.38
2022-11-05T11:54:02.675Z,11.50
2022-11-05T11:56:32.538Z,10.32
2022-11-05T11:59:11.844Z,9.23
2022-11-05T12:02:20.127Z,9.35
2022-11-05T12:05:14.837Z,10.75
2022-11-05T12:07:52.755Z,11.25
2022-11-05T12:10:35.210Z,10.63
2022-11-05T12:13:27.172Z,10.88
2022-11-05T12:15:58.845Z,7.93
2022-11-05T12:18:35.205Z,8.43
2022-11-05T12:21:08.353Z,8.30
2022-11-05T12:24:19.650Z,11.13
2022-11-05T12:27:00.579Z,6.85
2022-11-05T12:29:46.258Z,6.97
2022-11-05T12:32:51.878Z,8.40
2022-11-05T12:35:33.521Z,7.60
2022-11-05T12:38:10.445Z,5.10
2022-11-05T12:40:52.460Z,5.13
2022-11-05T12:43:27.648Z,4.07
2022-11-05T12:46:01.307Z,10.20
2022-11-05T12:48:52.297Z,6.35
2022-11-05T12:51:32.100Z,5.88
2022-11-05T12:54:16.076Z,4.28
2022-11-05T12:56:46.930Z,4.40
2022-11-05T12:59:20.921Z,3.42
2022-11-05T13:01:51.876Z,6.47
2022-11-05T13:04:38.964Z,5.82
2022-11-05T13:07:09.903Z,5.15
2022-11-05T13:09:42.671Z,4.38
2022-11-05T13:12:14.045Z,2.80
2022-11-05T13:14:53.678Z,4.72
2022-11-05T13:17:25.022Z,4.30
2022-11-05T13:20:17.692Z,6.28
2022-11-05T13:22:47.950Z,6.47
2022-11-05T13:25:21.243Z,5.70
2022-11-05T13:27:54.688Z,6.18
2022-11-05T13:30:25.726Z,3.63
2022-11-05T13:33:00.482Z,6.00
2022-11-05T13:35:37.991Z,4.82
2022-11-05T13:38:27.221Z,9.23
2022-11-05T13:41:10.774Z,6.97
2022-11-05T13:43:57.621Z,5.30
2022-11-05T13:46:57.682Z,7.07
2022-11-05T13:49:54.059Z,5.60
2022-11-05T13:52:47.328Z,6.88
2022-11-05T13:55:37.163Z,6.63
2022-11-05T13:58:27.973Z,51.00
2022-11-05T14:01:08.439Z,4.13
2022-11-05T14:03:37.474Z,4.63
2022-11-05T14:06:08.595Z,7.75
2022-11-05T14:08:42.279Z,4.53
2022-11-05T14:11:22.371Z,6.35
2022-11-05T14:13:55.754Z,7.97
2022-11-05T14:16:25.541Z,6.25
2022-11-05T14:19:30.322Z,5.55
2022-11-05T14:21:59.511Z,7.10
2022-11-05T14:24:47.332Z,5.40
2022-11-05T14:27:44.662Z,7.65
2022-11-05T14:30:45.605Z,4.25
2022-11-05T14:33:38.482Z,4.85
2022-11-05T14:36:43.181Z,3.28
2022-11-05T14:39:20.829Z,5.65
2022-11-05T14:42:12.854Z,5.32
2022-11-05T14:45:02.332Z,5.80
2022-11-05T14:47:33.759Z,4.63
2022-11-05T14:50:09.114Z,5.10
2022-11-05T14:52:39.214Z,6.45
2022-11-05T14:55:23.941Z,5.15
2022-11-05T14:58:29.343Z,5.18
2022-11-05T15:00:58.182Z,6.22
2022-11-05T15:03:33.230Z,4.72
2022-11-05T15:06:24.162Z,7.75
2022-11-05T15:09:14.436Z,5.30
2022-11-05T15:14:22.714Z,6.20
2022-11-05T15:16:53.945Z,7.47
2022-11-05T15:19:25.542Z,7.55
2022-11-05T15:21:57.761Z,6.53
2022-11-05T15:24:28.738Z,8.93
2022-11-05T15:27:04.226Z,11.68
2022-11-05T15:29:34.676Z,7.40
2022-11-05T15:32:03.383Z,5.82
2022-11-05T15:34:33.693Z,5.53
2022-11-05T15:39:39.589Z,6.95
2022-11-05T15:42:13.475Z,7.35
2022-11-05T15:44:44.403Z,6.80
2022-11-05T15:47:19.446Z,6.97
2022-11-05T15:49:49.960Z,8.32
2022-11-05T15:52:20.119Z,6.18
2022-11-05T15:55:07.026Z,9.90
2022-11-05T15:57:39.902Z,14.10
2022-11-05T16:00:18.251Z,9.20
2022-11-05T16:02:54.368Z,9.32
2022-11-05T16:05:23.205Z,8.00
2022-11-05T16:07:51.471Z,6.53
2022-11-05T16:10:22.607Z,8.35
2022-11-05T16:12:51.065Z,7.55
2022-11-05T16:15:23.452Z,7.57
2022-11-05T16:17:54.789Z,10.90
2022-11-05T16:20:29.631Z,8.27
2022-11-05T16:23:00.051Z,9.45
2022-11-05T16:25:33.433Z,8.57
2022-11-05T16:28:02.605Z,8.32
2022-11-05T16:30:32.187Z,9.10
2022-11-05T16:33:08.339Z,9.15
2022-11-05T16:35:41.304Z,8.23
2022-11-05T16:38:13.048Z,8.60
2022-11-05T16:40:41.335Z,7.70
2022-11-05T16:43:19.296Z,7.38
2022-11-05T16:45:49.161Z,8.30
2022-11-05T16:48:17.601Z,6.43
2022-11-05T16:50:46.063Z,7.00
2022-11-05T16:53:14.292Z,11.25
2022-11-05T16:55:44.892Z,12.35
2022-11-05T16:58:20.576Z,11.98
2022-11-05T17:00:51.264Z,11.30
2022-11-05T17:03:20.844Z,14.38
2022-11-05T17:05:49.172Z,12.52
2022-11-05T17:08:17.690Z,12.55
2022-11-05T17:10:45.690Z,10.68
2022-11-05T17:13:15.757Z,11.75
2022-11-05T17:15:45.715Z,16.38
2022-11-05T17:18:18.805Z,11.55
2022-11-05T17:20:49.334Z,16.15
2022-11-05T17:23:19.839Z,24.17
2022-11-05T17:25:49.472Z,16.90
2022-11-05T17:28:18.355Z,18.45
2022-11-05T17:30:52.147Z,19.35
2022-11-05T17:33:23.720Z,18.67
2022-11-05T17:35:52.634Z,20.58
2022-11-05T17:38:21.609Z,17.85
2022-11-05T17:40:49.605Z,17.98
2022-11-05T17:43:18.250Z,15.48
2022-11-05T17:45:47.881Z,15.25
2022-11-05T17:48:17.040Z,13.75
2022-11-05T17:50:48.254Z,14.75
2022-11-05T17:53:18.853Z,15.38
2022-11-05T17:55:47.981Z,14.32
2022-11-05T17:58:16.230Z,13.75
2022-11-05T18:00:45.698Z,19.35
2022-11-05T18:03:13.925Z,13.43
2022-11-05T18:05:42.677Z,11.85
2022-11-05T18:08:12.540Z,14.02
2022-11-05T18:10:41.738Z,12.38
2022-11-05T18:13:10.581Z,13.48
2022-11-05T18:15:41.159Z,13.75
2022-11-05T18:18:09.864Z,14.95
2022-11-05T18:20:38.317Z,13.90
2022-11-05T18:23:06.295Z,14.00
2022-11-05T18:25:35.672Z,13.02
2022-11-05T18:28:04.091Z,13.63
2022-11-05T18:30:32.182Z,13.43
2022-11-05T18:33:00.187Z,10.75
2022-11-05T18:35:28.089Z,11.85
2022-11-05T18:37:56.139Z,11.15
2022-11-05T18:40:24.111Z,10.48
2022-11-05T18:42:53.639Z,11.32
2022-11-05T18:45:25.538Z,10.63
2022-11-05T18:47:56.517Z,11.18
2022-11-05T18:50:24.465Z,11.07
2022-11-05T18:52:52.399Z,13.20
2022-11-05T18:55:21.058Z,10.55
2022-11-05T18:57:49.093Z,12.52
2022-11-05T19:00:18.838Z,9.98
2022-11-05T19:02:46.891Z,12.23
2022-11-05T19:05:28.568Z,11.95
2022-11-05T19:07:57.191Z,10.32
2022-11-05T19:10:25.562Z,10.27
2022-11-05T19:12:53.766Z,10.02
2022-11-05T19:15:23.238Z,8.63
2022-11-05T19:17:51.200Z,10.53
2022-11-05T19:20:19.168Z,10.20
2022-11-05T19:22:47.146Z,8.30
2022-11-05T19:25:15.093Z,7.30
2022-11-05T19:27:44.087Z,10.43
2022-11-05T19:30:12.650Z,10.82
2022-11-05T19:32:42.336Z,11.18
2022-11-05T19:35:10.574Z,12.57
2022-11-05T19:37:38.524Z,15.35
2022-11-05T19:40:07.947Z,13.77
2022-11-05T19:42:36.105Z,18.33
2022-11-05T19:45:30.116Z,15.98
2022-11-05T19:47:54.423Z,17.38
2022-11-05T19:50:22.447Z,15.65
2022-11-05T19:52:50.457Z,16.27
2022-11-05T19:55:18.599Z,15.85
2022-11-05T19:57:46.561Z,13.10
2022-11-05T20:00:15.473Z,9.43
2022-11-05T20:02:45.972Z,12.63
2022-11-05T20:05:18.074Z,11.98
2022-11-05T20:07:51.412Z,6.90
2022-11-05T20:10:20.926Z,5.93
2022-11-05T20:12:48.941Z,5.43
2022-11-05T20:15:19.003Z,4.63
2022-11-05T20:17:50.179Z,4.88
2022-11-05T20:20:20.426Z,4.03
2022-11-05T20:25:16.487Z,3.88
2022-11-05T20:27:44.453Z,5.93
2022-11-05T20:30:12.912Z,3.95
2022-11-05T20:32:42.318Z,5.43
2022-11-05T20:35:11.204Z,9.33
2022-11-05T20:37:40.669Z,7.00
2022-11-05T20:40:09.612Z,10.13
2022-11-05T20:42:38.096Z,4.55
2022-11-05T20:45:06.978Z,4.57
2022-11-05T20:47:35.043Z,7.70
2022-11-05T20:50:04.074Z,4.75
2022-11-05T20:52:32.222Z,6.38
2022-11-05T20:55:02.243Z,4.07
2022-11-05T20:57:30.205Z,6.60
2022-11-05T20:59:58.328Z,6.25
2022-11-05T21:02:26.348Z,4.97
2022-11-05T21:04:54.629Z,7.53
2022-11-05T21:07:22.627Z,9.35
2022-11-05T21:09:50.589Z,8.25
2022-11-05T21:12:21.470Z,9.15
2022-11-05T21:14:51.085Z,5.07
2022-11-05T21:17:19.617Z,6.25
2022-11-05T21:19:47.564Z,5.57
2022-11-05T21:22:16.455Z,6.28
2022-11-05T21:24:44.646Z,9.70
2022-11-05T21:27:12.716Z,8.77
2022-11-05T21:29:42.090Z,4.13
2022-11-05T21:32:10.188Z,5.27
2022-11-05T21:34:38.385Z,5.47
2022-11-05T21:37:06.920Z,4.07
2022-11-05T21:39:35.137Z,7.50
2022-11-05T21:42:03.896Z,7.00
2022-11-05T21:44:32.063Z,4.40
2022-11-05T21:47:04.457Z,4.47
2022-11-05T21:49:32.443Z,5.75
2022-11-05T21:52:17.605Z,4.60
2022-11-05T21:55:02.767Z,4.35
2022-11-05T21:57:47.981Z,4.53
2022-11-05T22:00:16.136Z,7.85
2022-11-05T22:02:45.722Z,7.75
2022-11-05T22:05:14.651Z,5.30
2022-11-05T22:07:42.776Z,5.43
2022-11-05T22:10:16.231Z,6.60
2022-11-05T22:12:44.734Z,4.00
2022-11-05T22:15:13.057Z,6.03
2022-11-05T22:17:46.266Z,5.50
2022-11-05T22:20:17.000Z,4.22
2022-11-05T22:22:45.040Z,6.00
2022-11-05T22:25:14.333Z,7.28
2022-11-05T22:27:43.924Z,9.98
2022-11-05T22:30:13.420Z,7.43
2022-11-05T22:32:41.372Z,7.17
2022-11-05T22:35:10.097Z,5.18
2022-11-05T22:37:39.543Z,5.88
2022-11-05T22:40:08.301Z,6.97
2022-11-05T22:42:36.488Z,10.85
2022-11-05T22:45:04.797Z,10.02
2022-11-05T22:47:32.788Z,6.63
2022-11-05T22:50:00.799Z,8.38
2022-11-05T22:52:28.732Z,5.55
2022-11-05T22:54:58.087Z,6.78
2022-11-05T22:57:26.025Z,6.43
2022-11-05T22:59:54.129Z,6.15
2022-11-05T23:02:22.249Z,5.82
2022-11-05T23:04:52.430Z,8.50
2022-11-05T23:07:37.750Z,4.82
2022-11-05T23:10:25.726Z,6.93
2022-11-05T23:12:56.394Z,6.20
2022-11-05T23:15:41.771Z,5.53
2022-11-05T23:18:28.134Z,6.63
2022-11-05T23:21:13.643Z,8.77
2022-11-05T23:23:59.435Z,8.35
2022-11-05T23:26:46.178Z,8.18
2022-11-05T23:29:14.074Z,7.00
2022-11-05T23:31:59.505Z,6.63
2022-11-05T23:34:27.744Z,6.70
2022-11-05T23:37:13.013Z,5.10
2022-11-05T23:39:42.885Z,6.55
2022-11-05T23:42:30.495Z,10.57
2022-11-05T23:45:16.095Z,9.90
2022-11-05T23:48:01.832Z,10.48
2022-11-05T23:50:35.436Z,10.52
2022-11-05T23:53:06.467Z,10.00
2022-11-05T23:55:34.454Z,15.32
2022-11-05T23:58:03.742Z,6.18
